Terminal Aerodrome Forecast
Issued by NWS Greer, SC

Home | Current Version | Previous Version | Text Only | Print | Product List | Glossary On
Versions: 1 2 3 4 5 6 7 8 9 10 11 12 13 14 15
000
FTUS42 KGSP 230703 AAA
TAFAVL
TAF AMD
KAVL 230703Z 2307/2406 14008KT 6SM -SHRA OVC006
     FM230900 14008KT 3SM -SHRA BR OVC003
      TEMPO 2310/2314 3/4SM +SHRA BR OVC002
     FM231400 15010G17KT 1 1/2SM +SHRA BR OVC003 PROB30 2316/2319
      3/4SM TSRA BR OVC005CB
     FM232000 21009KT 3SM SHRA BR OVC020
     FM232300 22007KT 4SM BR BKN035
     FM240200 33007KT P6SM BKN100=

USA.gov is the U.S. government's official web portal to all federal, state and local government web resources and services.